< < Back
Terminal Aerodrome Forecast


Current Version              Previous Versions:   1  2  3  4  5  6  7  8  9  

Terminal Aerodrome Forecast

267
FTUS44 KBMX 252333
TAFTCL
TAF
KTCL 252333Z 2600/2624 VRB05KT P6SM VCTS BKN060CB
     FM260200 VRB02KT P6SM BKN200
     FM261500 VRB05KT P6SM SCT050=



Latest METAR

690
SAUS70 KWBC 261100 RRD
MTRTCL
METAR KTCL 261053Z AUTO 00000KT 5SM BR CLR 23/23 A3010 RMK AO2 SLP188
T02330233


USA.gov is the U.S. government's official web portal to all federal, state and local government web resources and services.